Time;durP1;ratioP1;P1;durP2;ratioP2;P2;SDS_P1;SDS_P2;PMS_P1;PMS_P2;Temp;Humidity;BMP_temperature;BMP_pressure;BME280_temperature;BME280_humidity;BME280_pressure;Samples;Min_cycle;Max_cycle;Signal;HPM_P1;HPM_P2
2022/07/24 00:01:58;;;;;;;4.23;3.83;;;12.50;99.90;;;;;;5104042;27;20217;-48
2022/07/24 00:04:25;;;;;;;4.33;3.83;;;12.60;99.90;;;;;;5093703;27;20196;-52
2022/07/24 00:06:52;;;;;;;4.90;3.67;;;12.60;99.90;;;;;;5104215;28;20558;-50
2022/07/24 00:09:19;;;;;;;4.67;4.27;;;12.50;99.90;;;;;;5101791;28;20253;-54
2022/07/24 00:11:46;;;;;;;4.43;4.07;;;;;;;;;;5106552;28;20205;-54
2022/07/24 00:14:14;;;;;;;5.43;3.70;;;12.40;99.90;;;;;;5117039;27;20232;-51
2022/07/24 00:16:41;;;;;;;5.07;4.10;;;12.40;99.90;;;;;;5104215;28;20221;-54
2022/07/24 00:19:09;;;;;;;5.20;4.00;;;12.30;99.90;;;;;;5108653;28;20203;-52
2022/07/24 00:21:36;;;;;;;4.53;4.10;;;12.20;99.90;;;;;;5102769;28;20213;-54
2022/07/24 00:24:03;;;;;;;5.00;4.50;;;12.20;99.90;;;;;;5103545;28;20197;-53
2022/07/24 00:26:30;;;;;;;4.50;4.10;;;12.20;99.90;;;;;;5096437;28;20216;-48
2022/07/24 00:28:57;;;;;;;5.67;4.70;;;12.30;99.90;;;;;;5111313;28;20196;-55
2022/07/24 00:31:25;;;;;;;4.47;3.60;;;12.20;99.90;;;;;;5099015;28;20197;-53
2022/07/24 00:33:52;;;;;;;4.67;4.27;;;12.30;99.90;;;;;;5099533;27;20212;-55
2022/07/24 00:36:19;;;;;;;4.33;3.93;;;12.20;99.90;;;;;;5111563;27;20235;-51
2022/07/24 00:38:46;;;;;;;4.40;4.00;;;12.20;99.90;;;;;;5115143;27;20201;-54
2022/07/24 00:41:14;;;;;;;4.23;3.83;;;12.30;99.90;;;;;;5109861;27;20205;-51
2022/07/24 00:44:00;;;;;;;4.47;4.07;;;12.10;99.90;;;;;;5107738;27;20205;-54
2022/07/24 00:46:29;;;;;;;4.40;4.00;;;12.10;99.90;;;;;;5109481;27;20236;-55
2022/07/24 00:48:56;;;;;;;4.20;3.83;;;12.10;99.90;;;;;;5106145;27;21161;-54
2022/07/24 00:51:24;;;;;;;8.20;4.10;;;12.10;99.90;;;;;;5107873;27;20224;-49
2022/07/24 00:53:52;;;;;;;4.13;3.73;;;12.10;99.90;;;;;;5106644;27;20205;-49
2022/07/24 00:56:19;;;;;;;3.70;3.40;;;12.20;99.90;;;;;;5104778;28;20710;-50
2022/07/24 00:58:46;;;;;;;4.27;3.87;;;12.20;99.90;;;;;;5097608;27;20216;-54
2022/07/24 01:01:13;;;;;;;4.70;3.67;;;12.00;99.90;;;;;;5115557;27;20201;-53
2022/07/24 01:03:41;;;;;;;3.50;3.20;;;12.00;99.90;;;;;;5105143;27;20201;-49
2022/07/24 01:06:09;;;;;;;3.80;3.50;;;12.00;99.90;;;;;;5098132;27;20224;-55
2022/07/24 01:08:36;;;;;;;4.97;3.63;;;11.90;99.90;;;;;;5116473;27;20220;-50
2022/07/24 01:11:04;;;;;;;4.20;3.80;;;11.90;99.90;;;;;;5106421;27;20204;-48
2022/07/24 01:13:32;;;;;;;4.03;3.57;;;12.00;99.90;;;;;;5099917;27;20339;-51
2022/07/24 01:15:59;;;;;;;4.17;3.77;;;11.90;99.90;;;;;;5113083;27;20578;-51
2022/07/24 01:18:26;;;;;;;5.13;3.37;;;11.90;99.90;;;;;;5106694;27;20900;-51
2022/07/24 01:20:55;;;;;;;3.33;3.13;;;11.90;99.90;;;;;;5110225;27;20565;-54
2022/07/24 01:23:22;;;;;;;4.40;3.50;;;11.90;99.90;;;;;;5107740;27;20216;-55
2022/07/24 01:25:49;;;;;;;5.00;3.80;;;11.90;99.90;;;;;;5106933;27;21521;-51
2022/07/24 01:28:17;;;;;;;4.10;3.70;;;11.90;99.90;;;;;;5097022;27;20201;-52
2022/07/24 01:30:44;;;;;;;4.10;3.70;;;11.90;99.90;;;;;;5101042;27;20193;-50
2022/07/24 01:33:10;;;;;;;5.13;3.23;;;11.70;99.90;;;;;;5113913;27;20186;-53
2022/07/24 01:35:38;;;;;;;3.60;3.30;;;11.80;99.90;;;;;;5104097;27;20193;-52
2022/07/24 01:38:06;;;;;;;4.70;4.30;;;11.70;99.90;;;;;;5109317;27;20541;-55
2022/07/24 01:40:33;;;;;;;4.90;3.53;;;11.70;99.90;;;;;;5119343;27;20204;-50
2022/07/24 01:43:00;;;;;;;4.40;4.00;;;11.70;99.90;;;;;;5113611;27;20548;-51
2022/07/24 01:45:26;;;;;;;4.80;3.57;;;11.70;99.90;;;;;;5096544;27;20854;-53
2022/07/24 01:47:53;;;;;;;4.90;3.50;;;11.70;99.90;;;;;;5113097;27;20224;-49
2022/07/24 01:50:21;;;;;;;6.40;3.70;;;11.70;99.90;;;;;;5107241;27;20204;-53
2022/07/24 01:52:47;;;;;;;4.27;3.87;;;11.80;99.90;;;;;;5108936;27;20193;-54
2022/07/24 01:55:16;;;;;;;4.33;3.80;;;11.70;99.90;;;;;;5112291;27;20201;-53
2022/07/24 01:57:43;;;;;;;4.60;3.90;;;11.70;99.90;;;;;;5124751;27;20219;-50
2022/07/24 02:00:12;;;;;;;4.00;3.63;;;11.60;99.90;;;;;;5115888;27;20193;-52
2022/07/24 02:02:43;;;;;;;5.83;3.83;;;11.60;99.90;;;;;;5105795;27;20221;-50
2022/07/24 02:05:12;;;;;;;4.37;3.90;;;11.60;99.90;;;;;;5109642;27;20658;-54
2022/07/24 02:07:40;;;;;;;3.73;3.43;;;11.70;99.90;;;;;;5101375;27;20316;-52
2022/07/24 02:10:08;;;;;;;4.50;3.83;;;11.70;99.90;;;;;;5107026;27;20220;-54
2022/07/24 02:12:36;;;;;;;4.00;3.70;;;11.80;99.90;;;;;;5103415;27;20202;-54
2022/07/24 02:15:04;;;;;;;3.97;3.57;;;11.70;99.90;;;;;;5105612;28;20197;-49
2022/07/24 02:17:31;;;;;;;4.30;3.90;;;11.60;99.90;;;;;;5096681;27;20219;-55
2022/07/24 02:19:58;;;;;;;4.23;3.93;;;11.60;99.90;;;;;;5112498;27;20270;-52
2022/07/24 02:22:25;;;;;;;4.00;3.70;;;11.50;99.90;;;;;;5109559;27;20915;-52
2022/07/24 02:24:52;;;;;;;4.50;3.93;;;11.50;99.90;;;;;;5104836;27;20202;-53
2022/07/24 02:27:18;;;;;;;5.87;4.20;;;11.50;99.90;;;;;;5122518;27;20217;-54
2022/07/24 02:29:47;;;;;;;4.47;4.03;;;11.50;99.90;;;;;;5108723;27;20280;-52
2022/07/24 02:32:14;;;;;;;5.13;3.43;;;11.50;99.90;;;;;;5099640;27;20567;-54
2022/07/24 02:34:41;;;;;;;4.03;3.63;;;11.60;99.90;;;;;;5107336;27;20331;-53
2022/07/24 02:37:08;;;;;;;4.23;3.83;;;11.60;99.90;;;;;;5117420;27;20220;-55
2022/07/24 02:39:35;;;;;;;4.63;4.17;;;11.50;99.90;;;;;;5099953;27;20429;-53
2022/07/24 02:42:02;;;;;;;4.00;3.70;;;11.40;99.90;;;;;;5110556;27;20222;-52
2022/07/24 02:44:29;;;;;;;4.70;4.10;;;11.40;99.90;;;;;;5101336;27;20189;-52
2022/07/24 02:46:57;;;;;;;4.63;3.63;;;11.40;99.90;;;;;;5105322;28;20219;-52
2022/07/24 02:49:24;;;;;;;4.60;4.20;;;11.40;99.90;;;;;;5097673;27;20200;-53
2022/07/24 02:51:51;;;;;;;4.50;4.20;;;11.40;99.90;;;;;;5114223;27;20197;-51
2022/07/24 02:54:18;;;;;;;3.87;3.57;;;11.40;99.90;;;;;;5098763;27;20673;-53
2022/07/24 02:56:45;;;;;;;4.50;3.50;;;11.30;99.90;;;;;;5105244;27;20239;-50
2022/07/24 02:59:12;;;;;;;3.97;3.57;;;11.30;99.90;;;;;;5116457;27;20235;-53
2022/07/24 03:01:39;;;;;;;4.83;3.97;;;11.30;99.90;;;;;;5103532;27;20212;-53
2022/07/24 03:04:07;;;;;;;5.70;3.40;;;11.40;99.90;;;;;;5098422;27;20196;-54
2022/07/24 03:06:34;;;;;;;3.87;3.30;;;11.40;99.90;;;;;;5105884;27;20212;-51
2022/07/24 03:09:01;;;;;;;4.37;4.07;;;11.40;99.90;;;;;;5118595;27;20238;-49
2022/07/24 03:11:29;;;;;;;3.63;3.33;;;11.40;99.90;;;;;;5097375;27;20201;-48
2022/07/24 03:13:56;;;;;;;4.13;3.83;;;11.30;99.90;;;;;;5122826;27;20211;-49
2022/07/24 03:16:22;;;;;;;4.10;3.70;;;11.20;99.90;;;;;;5112868;27;20288;-52
2022/07/24 03:18:49;;;;;;;4.57;3.80;;;11.20;99.90;;;;;;5115746;27;20216;-48
2022/07/24 03:21:19;;;;;;;3.60;3.30;;;11.20;99.90;;;;;;5099357;27;20201;-54
2022/07/24 03:23:46;;;;;;;4.53;3.70;;;11.30;99.90;;;;;;5111640;27;20241;-51
2022/07/24 03:26:13;;;;;;;3.47;3.17;;;11.20;99.90;;;;;;5102921;28;20678;-54
2022/07/24 03:28:39;;;;;;;3.50;3.20;;;11.10;99.90;;;;;;5101764;27;20197;-51
2022/07/24 03:31:06;;;;;;;3.57;3.37;;;11.10;99.90;;;;;;5120973;27;20567;-53
2022/07/24 03:33:33;;;;;;;4.97;3.37;;;11.20;99.90;;;;;;5104386;27;20268;-52
2022/07/24 03:36:00;;;;;;;3.67;3.37;;;11.20;99.90;;;;;;5103580;27;20769;-51
2022/07/24 03:38:29;;;;;;;3.73;3.43;;;11.30;99.90;;;;;;5104456;27;20881;-49
2022/07/24 03:40:55;;;;;;;3.40;3.10;;;11.30;99.90;;;;;;5104615;27;20288;-52
2022/07/24 03:43:23;;;;;;;3.90;3.47;;;11.40;99.90;;;;;;5099569;27;20723;-55
2022/07/24 03:45:50;;;;;;;3.80;3.40;;;11.40;99.90;;;;;;5118385;27;20204;-53
2022/07/24 03:48:17;;;;;;;3.80;3.50;;;11.40;99.90;;;;;;5101008;27;20204;-50
2022/07/24 03:50:44;;;;;;;4.80;3.40;;;11.40;99.90;;;;;;5103099;27;20205;-52
2022/07/24 03:53:11;;;;;;;3.90;3.57;;;11.40;99.90;;;;;;5109725;27;20273;-52
2022/07/24 03:55:39;;;;;;;4.27;3.97;;;11.30;99.90;;;;;;5121682;27;20184;-54
2022/07/24 03:58:06;;;;;;;4.03;3.63;;;11.30;99.90;;;;;;5113535;27;20189;-53
2022/07/24 04:00:33;;;;;;;4.00;3.70;;;11.30;99.90;;;;;;5110131;27;20181;-53
2022/07/24 04:03:00;;;;;;;5.20;3.63;;;11.40;99.90;;;;;;5100661;27;20582;-55
2022/07/24 04:05:27;;;;;;;4.97;4.00;;;11.40;99.90;;;;;;5088363;28;20844;-48
2022/07/24 04:07:54;;;;;;;4.57;3.73;;;11.40;99.90;;;;;;5112394;27;20637;-55
2022/07/24 04:10:21;;;;;;;4.53;4.13;;;11.40;99.90;;;;;;5107741;28;20266;-54
2022/07/24 04:12:49;;;;;;;4.40;4.10;;;11.40;99.90;;;;;;5107304;28;20535;-53
2022/07/24 04:15:16;;;;;;;4.30;3.77;;;11.40;99.90;;;;;;5101285;27;20544;-53
2022/07/24 04:17:43;;;;;;;4.30;3.90;;;11.50;99.90;;;;;;5101714;28;22459;-52
2022/07/24 04:20:11;;;;;;;4.77;4.33;;;11.50;99.90;;;;;;5107800;27;20816;-54
2022/07/24 04:22:38;;;;;;;6.07;3.70;;;11.60;99.90;;;;;;5095932;28;20246;-51
2022/07/24 04:25:07;;;;;;;3.97;3.30;;;11.60;99.90;;;;;;5104959;27;20205;-52
2022/07/24 04:27:34;;;;;;;3.70;3.40;;;11.60;99.90;;;;;;5100406;28;20570;-54
2022/07/24 04:30:03;;;;;;;4.53;3.97;;;11.60;99.90;;;;;;5105047;28;20253;-50
2022/07/24 04:32:30;;;;;;;3.90;3.60;;;11.60;99.90;;;;;;5107428;27;20189;-54
2022/07/24 04:34:57;;;;;;;4.23;3.83;;;11.70;99.90;;;;;;5103109;28;20250;-48
2022/07/24 04:37:24;;;;;;;4.40;4.00;;;11.70;99.90;;;;;;5090581;28;20209;-50
2022/07/24 04:39:51;;;;;;;4.17;3.83;;;11.80;99.90;;;;;;5111527;28;20594;-55
2022/07/24 04:42:18;;;;;;;6.60;4.33;;;11.80;99.90;;;;;;5104208;28;20212;-53
2022/07/24 04:44:45;;;;;;;5.43;4.47;;;11.80;99.90;;;;;;5100405;28;20206;-49
2022/07/24 04:47:14;;;;;;;4.40;4.00;;;11.90;99.90;;;;;;5108836;28;20217;-52
2022/07/24 04:49:40;;;;;;;4.77;4.37;;;11.90;99.90;;;;;;5101469;28;20201;-49
2022/07/24 04:52:07;;;;;;;5.10;4.60;;;12.00;99.90;;;;;;5101916;27;20205;-50
2022/07/24 04:54:34;;;;;;;4.63;4.23;;;12.10;99.90;;;;;;5102990;28;20193;-54
2022/07/24 04:57:01;;;;;;;4.83;4.40;;;12.10;99.90;;;;;;5107242;28;20221;-53
2022/07/24 04:59:27;;;;;;;5.20;4.70;;;12.20;99.90;;;;;;5103426;28;20205;-50
2022/07/24 05:01:54;;;;;;;4.37;4.00;;;12.30;99.90;;;;;;5106349;28;20196;-51
2022/07/24 05:04:22;;;;;;;6.80;4.00;;;12.30;99.90;;;;;;5099538;28;20576;-53
2022/07/24 05:06:49;;;;;;;4.47;4.07;;;12.40;99.90;;;;;;5110441;28;20221;-50
2022/07/24 05:09:16;;;;;;;4.77;4.00;;;12.50;99.90;;;;;;5096889;28;20201;-53
2022/07/24 05:11:43;;;;;;;4.33;3.57;;;12.50;99.90;;;;;;5104921;28;20246;-51
2022/07/24 05:14:10;;;;;;;4.40;4.00;;;12.60;99.90;;;;;;5111770;27;20201;-54
2022/07/24 05:16:37;;;;;;;5.57;3.77;;;12.70;99.90;;;;;;5095639;28;21081;-51
2022/07/24 05:19:04;;;;;;;6.00;4.37;;;12.80;99.90;;;;;;5108250;28;20197;-50
2022/07/24 05:21:33;;;;;;;5.13;3.50;;;12.90;99.90;;;;;;5108996;27;20187;-48
2022/07/24 05:24:01;;;;;;;5.07;3.40;;;13.00;99.90;;;;;;5106000;27;20219;-49
2022/07/24 05:26:31;;;;;;;3.77;3.23;;;13.10;99.90;;;;;;5104462;27;20220;-48
2022/07/24 05:28:57;;;;;;;3.67;3.10;;;13.20;99.90;;;;;;5107866;27;20580;-47
2022/07/24 05:31:25;;;;;;;4.80;3.30;;;13.30;99.90;;;;;;5105066;27;20204;-53
2022/07/24 05:33:52;;;;;;;4.60;3.37;;;13.40;99.90;;;;;;5106395;27;20669;-52
2022/07/24 05:36:19;;;;;;;5.17;3.23;;;13.50;99.90;;;;;;5103670;27;20218;-53
2022/07/24 05:38:48;;;;;;;3.97;3.53;;;13.60;99.90;;;;;;5106338;27;20193;-52
2022/07/24 05:41:15;;;;;;;4.27;2.57;;;13.70;99.90;;;;;;5102329;27;20208;-50
2022/07/24 05:43:42;;;;;;;4.13;2.60;;;13.90;99.90;;;;;;5103411;27;22692;-54
2022/07/24 05:46:09;;;;;;;7.77;2.80;;;14.00;99.90;;;;;;5115278;27;20572;-53
2022/07/24 05:48:35;;;;;;;2.50;2.30;;;14.10;99.90;;;;;;5099771;27;20197;-51
2022/07/24 05:51:03;;;;;;;2.93;2.50;;;14.20;99.90;;;;;;5106883;27;20565;-50
2022/07/24 05:53:29;;;;;;;2.50;2.20;;;14.30;99.90;;;;;;5101977;27;20197;-52
2022/07/24 05:55:58;;;;;;;2.80;2.43;;;14.40;99.90;;;;;;5098307;27;20220;-54
2022/07/24 05:58:25;;;;;;;3.28;2.63;;;14.50;99.90;;;;;;5107533;27;20482;-51
2022/07/24 06:00:52;;;;;;;4.88;2.50;;;14.70;99.90;;;;;;5103491;27;20511;-53
2022/07/24 06:03:18;;;;;;;3.10;2.20;;;15.00;99.90;;;;;;5103781;27;20796;-51
2022/07/24 06:05:45;;;;;;;2.85;2.20;;;15.10;99.90;;;;;;5110818;27;20444;-55
2022/07/24 06:08:12;;;;;;;3.03;2.05;;;15.40;99.90;;;;;;5115651;27;20526;-54
2022/07/24 06:10:39;;;;;;;2.30;2.10;;;15.60;99.90;;;;;;5097740;27;20507;-52
2022/07/24 06:13:07;;;;;;;2.25;2.00;;;15.90;99.90;;;;;;5099206;27;20421;-52
2022/07/24 06:15:34;;;;;;;3.60;2.33;;;15.90;99.90;;;;;;5094647;27;23052;-54
2022/07/24 06:18:01;;;;;;;2.40;2.20;;;16.10;99.90;;;;;;5104500;27;20205;-49
2022/07/24 06:20:28;;;;;;;3.97;1.90;;;16.10;99.90;;;;;;5108360;27;20515;-50
2022/07/24 06:22:55;;;;;;;2.20;2.00;;;16.20;99.90;;;;;;5116658;27;20211;-54
2022/07/24 06:25:22;;;;;;;1.77;1.57;;;16.20;99.90;;;;;;5099153;27;20205;-54
2022/07/24 06:27:53;;;;;;;3.50;1.80;;;16.30;99.90;;;;;;5098902;27;20895;-51
2022/07/24 06:30:23;;;;;;;2.73;1.80;;;16.40;99.90;;;;;;5099484;27;20574;-52
2022/07/24 06:32:52;;;;;;;3.30;1.70;;;16.40;99.90;;;;;;5099390;27;20217;-51
2022/07/24 06:35:19;;;;;;;1.60;1.50;;;16.50;99.90;;;;;;5100270;27;20284;-55
2022/07/24 06:37:47;;;;;;;1.90;1.57;;;16.60;99.90;;;;;;5100740;27;20221;-56
2022/07/24 06:40:15;;;;;;;2.63;1.53;;;16.60;99.90;;;;;;5100818;27;20196;-51
2022/07/24 06:42:42;;;;;;;2.67;1.27;;;16.70;99.90;;;;;;5092128;27;20212;-51
2022/07/24 06:45:09;;;;;;;2.50;1.50;;;16.80;99.90;;;;;;5105049;27;20216;-53
2022/07/24 06:47:37;;;;;;;1.37;1.27;;;16.90;99.90;;;;;;5104100;27;20216;-50
2022/07/24 06:50:05;;;;;;;2.53;1.73;;;17.10;99.90;;;;;;5110374;27;20580;-53
2022/07/24 06:52:32;;;;;;;3.87;1.67;;;17.10;99.90;;;;;;5105454;27;21046;-48
2022/07/24 06:54:59;;;;;;;2.03;1.80;;;17.20;99.90;;;;;;5114903;27;20194;-46
2022/07/24 06:57:26;;;;;;;3.27;1.67;;;17.20;99.90;;;;;;5095396;27;20227;-53
2022/07/24 06:59:53;;;;;;;1.80;1.70;;;17.30;99.90;;;;;;5115918;27;20197;-47
2022/07/24 07:02:20;;;;;;;2.00;1.60;;;17.40;99.90;;;;;;5095144;27;20228;-48
2022/07/24 07:04:49;;;;;;;2.07;1.60;;;17.50;99.90;;;;;;5105016;27;20213;-47
2022/07/24 07:07:16;;;;;;;2.20;1.50;;;17.60;99.90;;;;;;5101674;27;20208;-51
2022/07/24 07:09:43;;;;;;;1.57;1.47;;;17.70;99.90;;;;;;5111789;27;20288;-53
2022/07/24 07:12:11;;;;;;;4.47;2.00;;;17.70;99.90;;;;;;5112971;27;20246;-54
2022/07/24 07:14:38;;;;;;;3.10;1.60;;;17.80;99.90;;;;;;5107636;27;20200;-47
2022/07/24 07:17:05;;;;;;;2.17;1.40;;;18.00;99.90;;;;;;5103221;27;20238;-46
2022/07/24 07:19:31;;;;;;;1.83;1.40;;;18.00;99.90;;;;;;5105261;27;20319;-52
2022/07/24 07:21:59;;;;;;;3.83;1.60;;;18.10;99.90;;;;;;5102574;27;20201;-49
2022/07/24 07:24:26;;;;;;;1.83;1.67;;;18.20;99.90;;;;;;5108499;27;20212;-49
2022/07/24 07:26:53;;;;;;;1.73;1.40;;;18.30;99.90;;;;;;5107454;27;20221;-50
2022/07/24 07:29:21;;;;;;;2.40;1.77;;;18.40;99.90;;;;;;5097134;27;20194;-54
2022/07/24 07:31:47;;;;;;;2.10;1.97;;;18.50;99.90;;;;;;5117562;27;20246;-52
2022/07/24 07:34:14;;;;;;;2.60;1.93;;;18.60;99.90;;;;;;5094615;27;20197;-53
2022/07/24 07:36:41;;;;;;;3.67;1.97;;;18.60;99.90;;;;;;5099212;27;20233;-52
2022/07/24 07:39:09;;;;;;;2.00;1.80;;;18.70;99.90;;;;;;5102660;27;20204;-51
2022/07/24 07:41:36;;;;;;;2.20;1.30;;;18.80;99.90;;;;;;5106890;27;20205;-52
2022/07/24 07:44:04;;;;;;;2.00;1.67;;;18.80;99.90;;;;;;5103319;27;20232;-55
2022/07/24 07:46:30;;;;;;;1.70;1.60;;;18.90;99.90;;;;;;5113626;27;20209;-55
2022/07/24 07:48:57;;;;;;;2.10;1.50;;;19.00;99.90;;;;;;5104973;27;20196;-52
2022/07/24 07:51:24;;;;;;;1.37;1.20;;;19.10;99.90;;;;;;5106983;27;20205;-54
2022/07/24 07:53:51;;;;;;;2.13;1.53;;;19.10;99.90;;;;;;5112044;27;20590;-49
2022/07/24 07:56:20;;;;;;;1.77;1.63;;;19.20;99.90;;;;;;5103172;27;20217;-54
2022/07/24 07:58:47;;;;;;;3.10;1.60;;;19.30;99.90;;;;;;5111314;27;20204;-54
2022/07/24 08:01:14;;;;;;;2.53;1.93;;;19.40;99.90;;;;;;5099540;27;20201;-53
2022/07/24 08:03:41;;;;;;;2.57;1.47;;;19.50;99.90;;;;;;5117087;27;20211;-52
2022/07/24 08:06:08;;;;;;;1.90;1.70;;;19.60;99.90;;;;;;5102807;28;20578;-51
2022/07/24 08:08:35;;;;;;;1.77;1.67;;;19.70;99.90;;;;;;5099922;27;20213;-51
2022/07/24 08:11:02;;;;;;;2.40;1.57;;;19.80;99.90;;;;;;5109352;28;20200;-53
2022/07/24 08:13:30;;;;;;;2.50;1.50;;;19.90;99.90;;;;;;5098924;27;20203;-55
2022/07/24 08:15:57;;;;;;;2.30;1.40;;;20.10;99.90;;;;;;5099354;28;20231;-53
2022/07/24 08:18:24;;;;;;;1.93;1.57;;;20.10;99.90;;;;;;5111839;27;20271;-53
2022/07/24 08:20:51;;;;;;;2.03;1.80;;;20.20;99.90;;;;;;5111345;27;20200;-53
2022/07/24 08:23:18;;;;;;;1.60;1.50;;;20.40;99.90;;;;;;5104528;28;20201;-53
2022/07/24 08:25:45;;;;;;;1.60;1.50;;;20.50;99.90;;;;;;5111882;28;20209;-50
2022/07/24 08:28:12;;;;;;;1.80;1.70;;;20.50;99.90;;;;;;5108336;28;20649;-54
2022/07/24 08:30:40;;;;;;;3.23;1.70;;;20.60;99.90;;;;;;5096497;28;21157;-51
2022/07/24 08:33:07;;;;;;;1.77;1.63;;;20.80;99.90;;;;;;5112231;28;20189;-54
2022/07/24 08:35:34;;;;;;;3.70;1.90;;;20.90;99.90;;;;;;5107104;28;20177;-50
2022/07/24 08:38:01;;;;;;;2.33;1.30;;;21.00;99.90;;;;;;5092597;28;20712;-52
2022/07/24 08:40:34;;;;;;;4.10;2.03;;;21.10;99.90;;;;;;5100571;28;20269;-55
2022/07/24 08:43:02;;;;;;;3.67;1.90;;;21.20;99.90;;;;;;5110833;28;20248;-52
2022/07/24 08:45:28;;;;;;;2.60;1.90;;;21.30;99.90;;;;;;5097803;28;20289;-53
2022/07/24 08:47:57;;;;;;;3.27;2.37;;;21.40;99.90;;;;;;5107199;28;20235;-53
2022/07/24 08:50:24;;;;;;;3.07;1.77;;;21.50;99.90;;;;;;5106594;27;20247;-51
2022/07/24 08:52:51;;;;;;;1.80;1.70;;;21.70;99.90;;;;;;5106074;28;20738;-53
2022/07/24 08:55:18;;;;;;;1.83;1.73;;;21.60;99.90;;;;;;5095463;27;20197;-52
2022/07/24 08:57:44;;;;;;;3.80;1.80;;;21.70;99.90;;;;;;5108344;27;20220;-50
2022/07/24 09:00:12;;;;;;;2.03;1.73;;;21.70;99.90;;;;;;5114820;27;20523;-51
2022/07/24 09:02:39;;;;;;;1.50;1.40;;;21.70;99.90;;;;;;5101233;27;20220;-54
2022/07/24 09:05:08;;;;;;;2.13;1.53;;;21.80;99.90;;;;;;5114980;27;20220;-50
2022/07/24 09:07:35;;;;;;;2.03;1.73;;;21.90;99.90;;;;;;5103815;27;20227;-54
2022/07/24 09:10:04;;;;;;;2.43;1.70;;;22.00;99.90;;;;;;5103320;27;20209;-52
2022/07/24 09:12:33;;;;;;;2.03;1.80;;;22.20;99.90;;;;;;5112667;27;20197;-55
2022/07/24 09:15:01;;;;;;;2.27;2.00;;;22.30;99.90;;;;;;5113461;27;20200;-52
2022/07/24 09:17:29;;;;;;;2.53;1.67;;;22.50;99.90;;;;;;5105832;27;20344;-54
2022/07/24 09:19:57;;;;;;;4.87;1.87;;;22.50;99.90;;;;;;5108496;27;20390;-51
2022/07/24 09:22:33;;;;;;;4.50;2.30;;;22.60;99.90;;;;;;5116764;27;20197;-48
2022/07/24 09:25:09;;;;;;;2.90;1.93;;;22.70;99.90;;;;;;5110084;27;20229;-51
2022/07/24 09:27:38;;;;;;;3.00;1.93;;;22.60;99.30;;;;;;5107819;27;20236;-52
2022/07/24 09:30:07;;;;;;;2.63;1.87;;;22.60;99.30;;;;;;5103467;27;20205;-51
2022/07/24 09:32:35;;;;;;;2.27;2.00;;;22.70;99.20;;;;;;5106497;27;20201;-50
2022/07/24 09:35:03;;;;;;;2.73;2.37;;;22.80;98.80;;;;;;5107794;27;20209;-52
2022/07/24 09:37:33;;;;;;;2.53;1.80;;;22.90;98.40;;;;;;5119643;27;20273;-55
2022/07/24 09:40:10;;;;;;;4.17;1.83;;;23.00;98.40;;;;;;5103271;27;20201;-51
2022/07/24 09:42:40;;;;;;;3.03;1.90;;;23.10;97.90;;;;;;5102413;27;20212;-52
2022/07/24 09:45:12;;;;;;;3.40;2.13;;;23.10;97.90;;;;;;5108141;27;20216;-48
2022/07/24 09:47:40;;;;;;;2.22;2.13;;;23.40;97.70;;;;;;5104924;27;20216;-52
2022/07/24 09:50:15;;;;;;;2.35;2.10;;;23.50;97.40;;;;;;5115341;27;20247;-49
2022/07/24 09:52:44;;;;;;;2.42;2.20;;;23.50;96.90;;;;;;5111504;27;20192;-49
2022/07/24 09:55:22;;;;;;;1.92;1.80;;;23.50;97.00;;;;;;5098680;27;20205;-52
2022/07/24 09:57:49;;;;;;;2.92;2.50;;;23.60;96.90;;;;;;5097873;27;20225;-51
2022/07/24 10:00:17;;;;;;;3.00;2.25;;;23.70;96.60;;;;;;5111765;27;20193;-49
2022/07/24 10:02:45;;;;;;;2.08;1.98;;;23.70;96.40;;;;;;5103565;27;20201;-49
2022/07/24 10:05:14;;;;;;;1.95;1.80;;;23.80;96.20;;;;;;5100094;27;20231;-49
2022/07/24 10:07:42;;;;;;;2.28;1.90;;;24.00;96.30;;;;;;5110022;27;20232;-50
2022/07/24 10:10:10;;;;;;;2.88;2.00;;;24.30;96.20;;;;;;5104883;27;20213;-51
2022/07/24 10:12:38;;;;;;;2.60;2.10;;;24.50;95.10;;;;;;5098399;27;20344;-49
2022/07/24 10:15:07;;;;;;;2.50;1.95;;;24.50;94.60;;;;;;5110571;27;20250;-46
2022/07/24 10:17:56;;;;;;;2.20;2.10;;;24.50;94.50;;;;;;5106915;27;20228;-51
2022/07/24 10:20:36;;;;;;;2.58;2.38;;;24.60;94.30;;;;;;5107344;27;20216;-50
2022/07/24 10:23:07;;;;;;;2.42;2.10;;;24.60;94.30;;;;;;5111368;27;20184;-47
2022/07/24 10:25:48;;;;;;;3.95;2.40;;;24.70;94.20;;;;;;5105241;27;20239;-46
2022/07/24 10:28:20;;;;;;;2.35;2.15;;;24.80;93.70;;;;;;5107425;27;20572;-44
2022/07/24 10:30:47;;;;;;;3.45;2.50;;;24.80;93.50;;;;;;5110927;27;20220;-45
2022/07/24 10:33:14;;;;;;;2.40;2.10;;;25.00;93.20;;;;;;5109750;27;20197;-48
2022/07/24 10:35:42;;;;;;;2.50;2.13;;;25.00;93.00;;;;;;5100816;27;20216;-50
2022/07/24 10:38:22;;;;;;;2.70;2.50;;;25.00;92.60;;;;;;5120039;27;20207;-44
2022/07/24 10:40:53;;;;;;;2.03;1.83;;;24.90;91.80;;;;;;5105703;27;20205;-46
2022/07/24 10:43:22;;;;;;;2.75;2.50;;;24.90;92.20;;;;;;5107082;27;20657;-46
2022/07/24 10:46:11;;;;;;;2.95;2.75;;;25.10;91.80;;;;;;5107547;27;20216;-45
2022/07/24 10:48:39;;;;;;;4.50;3.25;;;25.20;91.90;;;;;;5103654;27;20204;-45
2022/07/24 10:51:11;;;;;;;4.40;4.00;;;25.40;91.00;;;;;;5100499;27;20232;-50
2022/07/24 10:53:51;;;;;;;3.50;3.20;;;25.40;90.30;;;;;;5111005;27;20259;-53
2022/07/24 10:56:21;;;;;;;3.60;3.30;;;25.20;89.40;;;;;;5106628;27;20304;-48
2022/07/24 10:59:01;;;;;;;4.97;3.70;;;25.40;89.10;;;;;;5106753;27;20785;-47
2022/07/24 11:01:30;;;;;;;4.10;3.80;;;25.40;87.80;;;;;;5110871;27;20193;-52
2022/07/24 11:03:58;;;;;;;3.78;3.47;;;25.50;87.70;;;;;;5103626;27;20201;-48
2022/07/24 11:06:40;;;;;;;3.78;3.58;;;25.50;88.50;;;;;;5109782;27;20280;-51
2022/07/24 11:09:08;;;;;;;4.68;3.88;;;25.80;87.70;;;;;;5110155;27;20200;-46
2022/07/24 11:11:41;;;;;;;3.58;3.33;;;25.80;87.30;;;;;;5104072;27;20200;-48
2022/07/24 11:14:09;;;;;;;5.60;3.42;;;25.90;85.50;;;;;;5107454;27;20205;-50
2022/07/24 11:16:36;;;;;;;4.22;3.40;;;26.00;85.70;;;;;;5110313;27;20237;-53
2022/07/24 11:19:27;;;;;;;3.30;3.03;;;26.10;85.70;;;;;;5113331;27;20311;-52
2022/07/24 11:22:12;;;;;;;4.10;3.40;;;26.20;84.80;;;;;;5099301;27;20372;-50
2022/07/24 11:25:08;;;;;;;3.30;3.10;;;26.30;84.60;;;;;;5106571;27;20232;-50
2022/07/24 11:27:56;;;;;;;4.00;3.63;;;26.30;84.30;;;;;;5105058;27;20217;-50
2022/07/24 11:30:24;;;;;;;3.95;3.65;;;26.30;84.30;;;;;;5105529;27;20284;-48
2022/07/24 11:32:51;;;;;;;3.25;3.05;;;26.60;84.10;;;;;;5102032;27;20204;-47
2022/07/24 11:35:27;;;;;;;5.57;3.75;;;26.60;83.30;;;;;;5107171;27;20201;-51
2022/07/24 11:37:54;;;;;;;4.50;4.20;;;26.60;83.30;;;;;;5097407;27;20992;-48
2022/07/24 11:40:23;;;;;;;3.47;3.17;;;26.70;82.40;;;;;;5116177;27;20193;-51
2022/07/24 11:42:56;;;;;;;5.25;3.50;;;26.50;82.30;;;;;;5105304;27;20193;-49
2022/07/24 11:45:23;;;;;;;4.95;4.45;;;26.70;81.90;;;;;;5103088;27;20727;-47
2022/07/24 11:47:50;;;;;;;4.22;3.92;;;26.80;81.80;;;;;;5112332;27;20216;-47
2022/07/24 11:50:21;;;;;;;4.68;3.80;;;26.70;80.70;;;;;;5108568;27;20542;-48
2022/07/24 11:52:49;;;;;;;8.35;4.13;;;26.70;80.70;;;;;;5092694;27;20212;-45
2022/07/24 11:55:18;;;;;;;6.97;4.47;;;26.70;80.40;;;;;;5113318;27;20196;-43
2022/07/24 11:57:49;;;;;;;5.00;3.78;;;26.80;80.30;;;;;;5111245;27;20248;-47
2022/07/24 12:00:19;;;;;;;4.05;3.65;;;26.90;80.40;;;;;;5102824;27;20204;-44
2022/07/24 12:02:47;;;;;;;5.95;3.83;;;27.20;79.60;;;;;;5108146;27;20619;-49
2022/07/24 12:05:23;;;;;;;4.75;4.35;;;27.40;78.80;;;;;;5121831;27;20205;-44
2022/07/24 12:07:50;;;;;;;5.50;3.65;;;27.40;78.20;;;;;;5107079;27;20231;-46
2022/07/24 12:10:22;;;;;;;4.35;3.75;;;27.60;77.70;;;;;;5103314;28;20576;-46
2022/07/24 12:12:53;;;;;;;4.30;3.90;;;27.80;76.20;;;;;;5101167;28;20193;-43
2022/07/24 12:15:21;;;;;;;7.70;4.13;;;27.90;76.40;;;;;;5100125;28;20201;-47
2022/07/24 12:17:55;;;;;;;6.00;3.97;;;28.20;75.70;;;;;;5097256;28;20229;-46
2022/07/24 12:20:22;;;;;;;3.78;3.50;;;28.30;74.00;;;;;;5111524;28;20223;-43
2022/07/24 12:22:50;;;;;;;4.15;3.70;;;28.40;74.00;;;;;;5104590;28;20212;-46
2022/07/24 12:25:16;;;;;;;4.18;3.75;;;28.20;73.50;;;;;;5098474;28;20680;-43
2022/07/24 12:27:47;;;;;;;3.95;3.65;;;28.10;73.60;;;;;;5111120;28;20236;-43
2022/07/24 12:30:34;;;;;;;3.90;3.65;;;28.00;73.90;;;;;;5112910;27;20216;-45
2022/07/24 12:33:03;;;;;;;3.67;3.40;;;28.10;72.10;;;;;;5113746;27;20196;-45
2022/07/24 12:35:32;;;;;;;4.70;3.80;;;28.10;72.70;;;;;;5107352;27;20192;-46
2022/07/24 12:38:02;;;;;;;4.07;3.65;;;28.10;72.50;;;;;;5113406;27;20270;-43
2022/07/24 12:40:33;;;;;;;3.50;3.30;;;28.10;72.90;;;;;;5096135;27;20201;-44
2022/07/24 12:43:03;;;;;;;3.58;3.28;;;28.10;72.00;;;;;;5120094;27;20754;-45
2022/07/24 12:45:30;;;;;;;4.80;3.90;;;28.20;72.00;;;;;;5112572;27;20218;-44
2022/07/24 12:48:19;;;;;;;3.95;3.65;;;28.40;71.30;;;;;;5107270;27;20281;-44
2022/07/24 12:51:01;;;;;;;4.10;3.08;;;28.40;69.10;;;;;;5114670;27;20217;-47
2022/07/24 12:53:29;;;;;;;3.92;3.50;;;28.40;70.90;;;;;;5103476;27;20192;-45
2022/07/24 12:56:21;;;;;;;4.00;3.60;;;28.60;69.90;;;;;;5100552;27;20217;-44